Time;durP1;ratioP1;P1;durP2;ratioP2;P2;SDS_P1;SDS_P2;PMS_P1;PMS_P2;Temp;Humidity;BMP_temperature;BMP_pressure;BME280_temperature;BME280_humidity;BME280_pressure;Samples;Min_cycle;Max_cycle;Signal;HPM_P1;HPM_P2
2023/01/26 00:02:00;;;;;;;;;;;;;;;28.50;20.39;101663.16;5077355;28;1054;-20
2023/01/26 00:04:25;;;;;;;;;;;;;;;28.59;20.02;101653.16;5077416;28;900;-20
2023/01/26 00:06:51;;;;;;;;;;;;;;;28.68;20.22;101654.84;5076918;28;1012;-20
2023/01/26 00:09:16;;;;;;;;;;;;;;;27.95;20.77;101644.69;5078258;28;1102;-20
2023/01/26 00:11:42;;;;;;;;;;;;;;;27.81;21.27;101648.03;5077223;28;1902;-21
2023/01/26 00:14:07;;;;;;;;;;;;;;;27.93;21.09;101638.59;5077879;28;1086;-20
2023/01/26 00:16:32;;;;;;;;;;;;;;;28.03;20.76;101638.41;5077521;28;1103;-20
2023/01/26 00:18:57;;;;;;;;;;;;;;;28.18;20.81;101637.75;5077410;28;1132;-20
2023/01/26 00:21:23;;;;;;;;;;;;;;;28.42;20.28;101639.66;5077682;28;1068;-20
2023/01/26 00:23:48;;;;;;;;;;;;;;;28.55;20.37;101652.66;5077156;28;1159;-20
2023/01/26 00:26:14;;;;;;;;;;;;;;;28.65;20.11;101636.22;5077465;28;1087;-20
2023/01/26 00:28:39;;;;;;;;;;;;;;;28.78;19.93;101634.88;5069986;28;1194;-20
2023/01/26 00:31:06;;;;;;;;;;;;;;;28.92;19.78;101628.72;5077646;28;1967;-20
2023/01/26 00:33:31;;;;;;;;;;;;;;;28.99;19.65;101633.47;5077393;28;1185;-20
2023/01/26 00:35:56;;;;;;;;;;;;;;;28.60;20.05;101628.63;5076857;28;1078;-20
2023/01/26 00:38:22;;;;;;;;;;;;;;;27.69;20.99;101615.91;5076553;28;1103;-20
2023/01/26 00:40:47;;;;;;;;;;;;;;;28.71;20.19;101613.88;5045735;28;1159;-20
2023/01/26 00:43:12;;;;;;;;;;;;;;;28.68;19.98;101621.50;5070540;28;1076;-20
2023/01/26 00:45:38;;;;;;;;;;;;;;;27.79;20.43;101613.06;5074564;28;1275;-20
2023/01/26 00:48:03;;;;;;;;;;;;;;;28.86;20.09;101610.47;5077509;28;1144;-20
2023/01/26 00:50:28;;;;;;;;;;;;;;;29.63;19.09;101613.53;5076723;28;1969;-20
2023/01/26 00:52:54;;;;;;;;;;;;;;;29.68;18.80;101605.72;5076843;28;1122;-20
2023/01/26 00:55:19;;;;;;;;;;;;;;;28.70;19.62;101603.22;5076787;28;1143;-20
2023/01/26 00:57:44;;;;;;;;;;;;;;;28.68;19.72;101597.13;5076882;28;1150;-20
2023/01/26 01:00:14;;;;;;;;;;;;;;;28.34;19.93;101597.19;5076721;28;1194;-21
2023/01/26 01:02:39;;;;;;;;;;;;;;;28.26;19.75;101589.03;5076828;28;1246;-20
2023/01/26 01:05:04;;;;;;;;;;;;;;;28.30;19.82;101590.41;5076365;28;945;-21
2023/01/26 01:07:30;;;;;;;;;;;;;;;28.39;19.49;101583.16;5076352;28;973;-20
2023/01/26 01:09:55;;;;;;;;;;;;;;;28.36;19.82;101587.03;5076592;28;1985;-20
2023/01/26 01:12:20;;;;;;;;;;;;;;;28.46;19.34;101584.16;5076278;28;1102;-20
2023/01/26 01:14:45;;;;;;;;;;;;;;;28.51;18.60;101570.09;5076949;28;1145;-20
2023/01/26 01:17:11;;;;;;;;;;;;;;;28.47;17.90;101572.34;5076029;28;1094;-20
2023/01/26 01:19:36;;;;;;;;;;;;;;;28.51;17.62;101567.38;5072951;28;1339;-20
2023/01/26 01:22:02;;;;;;;;;;;;;;;28.54;17.20;101571.63;5075804;28;849;-21
2023/01/26 01:24:27;;;;;;;;;;;;;;;28.52;16.97;101570.94;5064716;28;1234;-20
2023/01/26 01:26:52;;;;;;;;;;;;;;;28.52;16.88;101577.22;5074795;28;1091;-20
2023/01/26 01:29:18;;;;;;;;;;;;;;;28.51;16.77;101572.81;5073691;28;899;-20
2023/01/26 01:31:43;;;;;;;;;;;;;;;28.42;17.12;101571.13;5076238;28;1898;-20
2023/01/26 01:34:08;;;;;;;;;;;;;;;28.37;17.09;101574.38;5076609;28;1059;-20
2023/01/26 01:36:33;;;;;;;;;;;;;;;28.41;17.25;101570.28;5076219;28;1027;-20
2023/01/26 01:39:00;;;;;;;;;;;;;;;28.41;17.53;101567.59;5076382;28;1059;-20
2023/01/26 01:41:25;;;;;;;;;;;;;;;28.45;17.50;101573.50;5075345;28;1151;-19
2023/01/26 01:43:50;;;;;;;;;;;;;;;28.53;17.56;101554.53;5076672;28;1086;-20
2023/01/26 01:46:20;;;;;;;;;;;;;;;28.59;17.84;101558.44;5076187;28;1107;-20
2023/01/26 01:48:53;;;;;;;;;;;;;;;28.63;17.71;101570.59;5076040;28;1481;-20
2023/01/26 01:51:30;;;;;;;;;;;;;;;28.66;17.89;101567.53;5075734;28;1910;-20
2023/01/26 01:53:56;;;;;;;;;;;;;;;28.68;17.87;101562.78;5075815;28;1025;-20
2023/01/26 01:56:22;;;;;;;;;;;;;;;28.73;18.04;101563.13;5076655;28;1115;-20
2023/01/26 01:58:47;;;;;;;;;;;;;;;28.76;18.18;101564.63;5076009;28;1186;-21
2023/01/26 02:01:13;;;;;;;;;;;;;;;28.09;18.46;101572.00;5053971;28;926;-20
2023/01/26 02:03:38;;;;;;;;;;;;;;;26.55;19.63;101560.19;5075921;28;1151;-20
2023/01/26 02:06:11;;;;;;;;;;;;;;;27.44;19.58;101560.94;5057678;28;864;-20
2023/01/26 02:08:37;;;;;;;;;;;;;;;28.60;18.11;101549.28;5061080;28;1171;-20
2023/01/26 02:11:32;;;;;;;;;;;;;;;28.43;18.65;101559.28;5061730;28;1886;-20
2023/01/26 02:13:57;;;;;;;;;;;;;;;28.22;18.75;101545.28;5061482;28;1180;-21
2023/01/26 02:16:22;;;;;;;;;;;;;;;28.11;18.92;101551.06;5059233;28;1048;-20
2023/01/26 02:18:48;;;;;;;;;;;;;;;28.15;19.23;101536.16;5079325;28;1115;-20
2023/01/26 02:21:17;;;;;;;;;;;;;;;28.23;18.83;101530.72;5060438;28;1028;-20
2023/01/26 02:24:01;;;;;;;;;;;;;;;28.36;18.79;101527.50;5078925;28;969;-20
2023/01/26 02:26:26;;;;;;;;;;;;;;;28.49;18.79;101528.84;5079069;28;1167;-20
2023/01/26 02:28:52;;;;;;;;;;;;;;;28.62;18.78;101520.19;5079340;28;1059;-20
2023/01/26 02:31:17;;;;;;;;;;;;;;;28.67;18.77;101525.91;5061257;28;1893;-20
2023/01/26 02:33:42;;;;;;;;;;;;;;;28.75;18.71;101516.91;5079880;28;1124;-20
2023/01/26 02:36:28;;;;;;;;;;;;;;;28.84;18.82;101525.84;5078829;28;1140;-20
2023/01/26 02:39:12;;;;;;;;;;;;;;;28.95;18.60;101516.47;5074319;28;1805;-20
2023/01/26 02:44:21;;;;;;;;;;;;;;;27.83;19.61;101508.09;5079010;28;1209;-20
2023/01/26 02:46:47;;;;;;;;;;;;;;;26.05;21.13;101497.81;5079291;28;1195;-20
2023/01/26 02:51:56;;;;;;;;;;;;;;;28.55;19.36;101503.78;5078759;28;1906;-21
2023/01/26 02:57:05;;;;;;;;;;;;;;;28.64;19.36;101499.19;5079006;28;1059;-20
2023/01/26 02:59:30;;;;;;;;;;;;;;;28.59;19.26;101494.28;5078847;28;1438;-21
2023/01/26 03:01:56;;;;;;;;;;;;;;;28.66;19.23;101505.25;5078744;28;1115;-21
2023/01/26 03:04:21;;;;;;;;;;;;;;;28.91;18.98;101509.75;5069907;28;1572;-20
2023/01/26 03:06:46;;;;;;;;;;;;;;;29.05;19.09;101505.44;5072560;28;923;-21
2023/01/26 03:09:11;;;;;;;;;;;;;;;29.15;18.77;101503.38;5078861;28;1059;-21
2023/01/26 03:11:43;;;;;;;;;;;;;;;29.35;18.65;101500.19;5078689;28;1960;-21
2023/01/26 03:14:11;;;;;;;;;;;;;;;29.39;18.91;101506.09;5066318;28;1024;-20
2023/01/26 03:16:36;;;;;;;;;;;;;;;29.44;18.68;101500.97;5078425;28;1110;-21
2023/01/26 03:27:25;;;;;;;;;;;;;;;28.73;19.38;101491.88;5073911;28;1311;-20
2023/01/26 03:29:50;;;;;;;;;;;;;;;28.06;20.16;101493.91;5077853;28;1435;-20
2023/01/26 03:32:16;;;;;;;;;;;;;;;29.76;18.67;101500.94;5078457;28;1938;-20
2023/01/26 03:34:41;;;;;;;;;;;;;;;29.88;18.48;101490.50;5078319;28;1155;-20
2023/01/26 03:37:06;;;;;;;;;;;;;;;29.88;18.65;101483.19;5078243;28;1106;-20
2023/01/26 03:56:17;;;;;;;;;;;;;;;29.64;19.20;101506.78;5077615;28;1084;-20
2023/01/26 03:58:43;;;;;;;;;;;;;;;29.43;19.51;101493.84;5077793;28;1047;-20
2023/01/26 04:01:09;;;;;;;;;;;;;;;29.38;19.56;101493.59;5074302;28;1259;-20
2023/01/26 04:09:03;;;;;;;;;;;;;;;24.72;19.50;101474.91;5065546;28;1118;-21
2023/01/26 04:11:28;;;;;;;;;;;;;;;28.29;18.96;101475.09;5077953;28;1906;-21
2023/01/26 04:22:05;;;;;;;;;;;;;;;28.60;18.02;101476.19;5077137;28;1102;-21
2023/01/26 04:24:30;;;;;;;;;;;;;;;28.54;17.56;101483.16;5077526;28;1031;-21
2023/01/26 04:26:56;;;;;;;;;;;;;;;28.47;17.66;101474.03;5077268;28;1401;-21
2023/01/26 04:29:21;;;;;;;;;;;;;;;28.21;17.40;101473.25;5076679;28;1129;-21
2023/01/26 04:31:46;;;;;;;;;;;;;;;28.33;17.31;101473.75;5076987;28;1894;-21
2023/01/26 04:34:12;;;;;;;;;;;;;;;28.14;17.33;101474.13;5077815;28;1151;-21
2023/01/26 04:36:38;;;;;;;;;;;;;;;28.11;17.19;101461.78;5077182;28;1127;-21
2023/01/26 04:39:03;;;;;;;;;;;;;;;28.17;17.26;101469.22;5077275;28;1043;-21
2023/01/26 04:41:29;;;;;;;;;;;;;;;28.04;17.16;101461.63;5077041;28;1114;-21
2023/01/26 04:43:54;;;;;;;;;;;;;;;27.98;17.43;101470.41;5077063;28;1066;-21
2023/01/26 04:46:19;;;;;;;;;;;;;;;27.90;17.57;101473.13;5076394;28;1122;-21
2023/01/26 04:48:45;;;;;;;;;;;;;;;27.87;17.17;101464.38;5076860;28;1075;-21
2023/01/26 04:51:14;;;;;;;;;;;;;;;27.81;17.27;101465.03;5077037;28;1971;-22
2023/01/26 04:53:39;;;;;;;;;;;;;;;27.99;17.48;101464.81;5076979;28;1083;-22
2023/01/26 04:56:04;;;;;;;;;;;;;;;28.26;17.72;101467.31;5076352;28;1044;-21
2023/01/26 04:58:31;;;;;;;;;;;;;;;28.34;17.74;101470.00;5076629;28;1110;-24
2023/01/26 05:00:56;;;;;;;;;;;;;;;28.36;17.94;101462.56;5058662;28;1063;-22
2023/01/26 05:03:22;;;;;;;;;;;;;;;28.24;17.42;101463.94;5068342;28;1107;-21
2023/01/26 05:05:48;;;;;;;;;;;;;;;28.24;17.80;101463.94;5071726;28;1149;-23
2023/01/26 05:08:13;;;;;;;;;;;;;;;28.24;17.55;101463.94;5067917;28;1094;-24
2023/01/26 05:10:38;;;;;;;;;;;;;;;28.41;17.34;101463.94;5072347;28;1902;-21
2023/01/26 05:13:04;;;;;;;;;;;;;;;28.47;17.47;101455.97;5068199;28;1109;-20
2023/01/26 05:15:29;;;;;;;;;;;;;;;28.42;17.21;101452.94;5076748;28;1172;-23
2023/01/26 05:17:56;;;;;;;;;;;;;;;28.41;17.17;101450.41;5065525;28;1140;-22
2023/01/26 05:20:22;;;;;;;;;;;;;;;28.40;17.14;101456.81;5074738;28;1131;-20
2023/01/26 05:22:47;;;;;;;;;;;;;;;28.31;17.35;101454.09;5066612;28;1075;-21
2023/01/26 05:25:13;;;;;;;;;;;;;;;28.68;17.06;101449.09;5075485;28;1331;-21
2023/01/26 05:27:38;;;;;;;;;;;;;;;28.66;17.51;101459.25;5076643;28;1241;-21
2023/01/26 05:30:04;;;;;;;;;;;;;;;28.62;17.72;101460.63;5076222;28;1901;-21
2023/01/26 05:32:29;;;;;;;;;;;;;;;28.65;18.06;101462.13;5076425;28;1389;-20
2023/01/26 05:34:55;;;;;;;;;;;;;;;28.67;18.35;101473.63;5075255;28;1024;-20
2023/01/26 05:37:20;;;;;;;;;;;;;;;28.75;18.29;101472.75;5074128;28;859;-22
2023/01/26 05:39:45;;;;;;;;;;;;;;;28.72;18.33;101477.50;5067730;28;1028;-28
2023/01/26 05:42:10;;;;;;;;;;;;;;;28.78;18.35;101472.41;5077143;28;1123;-30
2023/01/26 05:44:36;;;;;;;;;;;;;;;28.76;18.55;101475.25;5066961;28;1111;-32
2023/01/26 05:47:01;;;;;;;;;;;;;;;28.75;18.37;101472.75;5062295;28;1019;-28
2023/01/26 05:49:27;;;;;;;;;;;;;;;28.76;18.70;101469.84;5060081;28;1112;-27
2023/01/26 05:51:52;;;;;;;;;;;;;;;28.82;18.57;101465.59;5073241;28;1902;-26
2023/01/26 05:54:17;;;;;;;;;;;;;;;28.73;18.76;101462.09;5072865;28;1190;-29
2023/01/26 05:56:42;;;;;;;;;;;;;;;28.76;18.92;101469.84;5060171;28;1060;-32
2023/01/26 05:59:08;;;;;;;;;;;;;;;28.75;18.83;101467.31;5075988;28;1044;-30
2023/01/26 06:01:33;;;;;;;;;;;;;;;28.74;19.22;101471.91;5070329;28;1167;-29
2023/01/26 06:03:58;;;;;;;;;;;;;;;28.76;19.07;101472.56;5059837;28;1072;-30
2023/01/26 06:06:24;;;;;;;;;;;;;;;28.79;19.22;101471.38;5059495;28;1103;-29
2023/01/26 06:08:49;;;;;;;;;;;;;;;28.84;19.40;101472.50;5060065;28;1071;-32
2023/01/26 06:11:14;;;;;;;;;;;;;;;28.81;19.60;101466.63;5069912;28;1947;-28
2023/01/26 06:13:40;;;;;;;;;;;;;;;28.82;19.55;101466.47;5063385;28;920;-29
2023/01/26 06:16:05;;;;;;;;;;;;;;;28.85;19.48;101462.53;5059998;28;1181;-30
2023/01/26 06:18:30;;;;;;;;;;;;;;;28.81;19.83;101461.22;5060171;28;1083;-31
2023/01/26 06:21:02;;;;;;;;;;;;;;;28.79;19.90;101463.25;5069764;28;1095;-22
2023/01/26 06:23:27;;;;;;;;;;;;;;;28.88;19.95;101458.66;5062792;28;1261;-23
2023/01/26 06:25:52;;;;;;;;;;;;;;;28.85;19.79;101457.13;5070000;28;1025;-22
2023/01/26 06:28:21;;;;;;;;;;;;;;;28.83;19.85;101457.31;5061466;28;1126;-24
2023/01/26 06:30:46;;;;;;;;;;;;;;;28.87;19.84;101457.78;5069145;28;1898;-24
2023/01/26 06:33:11;;;;;;;;;;;;;;;28.89;19.92;101454.91;5072710;28;1028;-23
2023/01/26 06:35:36;;;;;;;;;;;;;;;28.87;20.05;101444.25;5059390;28;1052;-22
2023/01/26 06:38:02;;;;;;;;;;;;;;;28.90;19.94;101453.88;5076223;28;1151;-21
2023/01/26 06:40:28;;;;;;;;;;;;;;;28.92;19.94;101451.84;5074022;28;1183;-22
2023/01/26 06:42:53;;;;;;;;;;;;;;;28.94;20.01;101455.22;5075154;28;1105;-21
2023/01/26 06:45:19;;;;;;;;;;;;;;;28.93;20.03;101461.63;5044767;28;1032;-23
2023/01/26 06:47:47;;;;;;;;;;;;;;;28.91;19.88;101451.00;5069692;28;1234;-22
2023/01/26 06:50:13;;;;;;;;;;;;;;;29.03;19.87;101454.16;5075841;28;1915;-21
2023/01/26 06:52:38;;;;;;;;;;;;;;;29.01;19.92;101449.97;5066087;28;1286;-21
2023/01/26 06:55:08;;;;;;;;;;;;;;;29.00;19.97;101445.56;5060822;28;1495;-21
2023/01/26 06:57:33;;;;;;;;;;;;;;;29.05;19.98;101448.56;5047560;28;1359;-21
2023/01/26 06:59:59;;;;;;;;;;;;;;;29.06;19.75;101442.97;5068470;28;1190;-22
2023/01/26 07:02:24;;;;;;;;;;;;;;;29.04;20.04;101441.47;5058991;28;1067;-22
2023/01/26 07:04:49;;;;;;;;;;;;;;;29.08;19.63;101429.25;5078860;28;1256;-22
2023/01/26 07:07:15;;;;;;;;;;;;;;;29.06;19.40;101429.44;5071361;28;1202;-22
2023/01/26 07:09:40;;;;;;;;;;;;;;;29.17;19.34;101428.19;5065853;28;1148;-22
2023/01/26 07:12:05;;;;;;;;;;;;;;;29.15;19.33;101426.66;5059407;28;1948;-22
2023/01/26 07:14:31;;;;;;;;;;;;;;;29.14;19.40;101427.69;5058893;28;1115;-22
2023/01/26 07:16:56;;;;;;;;;;;;;;;29.15;19.41;101426.66;5064826;28;1064;-22
2023/01/26 07:19:21;;;;;;;;;;;;;;;29.15;19.59;101423.94;5077736;28;2867;-22
2023/01/26 07:21:47;;;;;;;;;;;;;;;29.17;19.62;101417.34;5078153;28;1127;-21
2023/01/26 07:24:12;;;;;;;;;;;;;;;29.19;19.49;101426.13;5078464;28;1060;-21
2023/01/26 07:26:38;;;;;;;;;;;;;;;29.20;19.46;101414.28;5075098;28;1122;-22
2023/01/26 07:29:03;;;;;;;;;;;;;;;29.30;19.54;101424.00;5068036;28;1043;-21
2023/01/26 07:31:28;;;;;;;;;;;;;;;29.35;19.40;101427.03;5062248;28;1961;-23
2023/01/26 07:33:54;;;;;;;;;;;;;;;29.32;19.58;101413.84;5058356;28;1035;-22
2023/01/26 07:36:19;;;;;;;;;;;;;;;29.48;19.09;101417.44;5060823;28;1044;-22
2023/01/26 07:38:44;;;;;;;;;;;;;;;29.50;19.06;101409.94;5071524;28;1151;-21
2023/01/26 07:41:10;;;;;;;;;;;;;;;29.49;19.26;101400.13;5078030;28;1079;-23
2023/01/26 07:43:36;;;;;;;;;;;;;;;29.56;19.34;101396.50;5068887;28;858;-22
2023/01/26 07:46:01;;;;;;;;;;;;;;;29.55;19.43;101396.69;5057765;28;1231;-21
2023/01/26 07:48:28;;;;;;;;;;;;;;;29.57;19.50;101394.66;5068910;28;1200;-22
2023/01/26 07:50:54;;;;;;;;;;;;;;;29.72;19.36;101383.00;5070803;28;1883;-22
2023/01/26 07:53:20;;;;;;;;;;;;;;;29.77;19.36;101380.59;5058587;28;1149;-22
2023/01/26 07:55:45;;;;;;;;;;;;;;;29.85;19.34;101379.63;5074594;28;1194;-21
2023/01/26 07:58:11;;;;;;;;;;;;;;;29.93;19.24;101368.69;5078047;28;1091;-21
2023/01/26 08:00:36;;;;;;;;;;;;;;;29.97;19.48;101367.31;5077656;28;1052;-22
2023/01/26 08:03:01;;;;;;;;;;;;;;;30.02;19.43;101355.88;5077601;28;1107;-22
2023/01/26 08:05:27;;;;;;;;;;;;;;;30.00;19.21;101369.63;5060786;28;1111;-22
2023/01/26 08:07:54;;;;;;;;;;;;;;;30.04;19.35;101364.69;5066641;28;899;-21
2023/01/26 08:10:19;;;;;;;;;;;;;;;30.02;19.39;101366.75;5043299;28;1905;-22
2023/01/26 08:12:44;;;;;;;;;;;;;;;29.99;19.33;101367.97;5057347;28;1102;-22
2023/01/26 08:15:10;;;;;;;;;;;;;;;28.58;20.48;101368.09;5058172;28;1028;-23
2023/01/26 08:17:37;;;;;;;;;;;;;;;27.41;21.89;101366.75;5066376;28;1134;-22
2023/01/26 08:20:02;;;;;;;;;;;;;;;29.21;20.47;101379.91;5063924;28;1194;-22
2023/01/26 08:22:27;;;;;;;;;;;;;;;29.73;19.70;101377.38;5068244;28;1194;-22
2023/01/26 08:24:53;;;;;;;;;;;;;;;29.60;19.84;101390.75;5059422;28;1111;-21
2023/01/26 08:27:18;;;;;;;;;;;;;;;29.63;19.97;101388.50;5068544;28;1139;-22
2023/01/26 08:29:43;;;;;;;;;;;;;;;29.54;20.14;101395.03;5071137;28;1217;-21
2023/01/26 08:32:09;;;;;;;;;;;;;;;29.61;19.97;101397.88;5057296;28;1898;-22
2023/01/26 08:34:34;;;;;;;;;;;;;;;29.65;19.98;101400.00;5059143;28;998;-21
2023/01/26 08:36:59;;;;;;;;;;;;;;;29.68;19.99;101399.66;5068119;28;1076;-21
2023/01/26 08:39:25;;;;;;;;;;;;;;;29.72;19.92;101388.44;5063741;28;1024;-21
2023/01/26 08:41:50;;;;;;;;;;;;;;;29.81;19.98;101382.72;5068466;28;1111;-22
2023/01/26 08:44:15;;;;;;;;;;;;;;;29.88;19.84;101382.81;5070720;28;1056;-21
2023/01/26 08:46:42;;;;;;;;;;;;;;;29.96;19.69;101376.50;5068368;28;1097;-22
2023/01/26 08:49:07;;;;;;;;;;;;;;;30.09;19.54;101361.41;5072029;28;1120;-22
2023/01/26 08:51:33;;;;;;;;;;;;;;;30.12;19.57;101370.00;5076060;28;1971;-21
2023/01/26 08:53:59;;;;;;;;;;;;;;;30.17;19.79;101364.88;5057909;28;1144;-22
2023/01/26 08:56:25;;;;;;;;;;;;;;;30.18;19.45;101363.81;5075975;28;921;-21
2023/01/26 08:58:50;;;;;;;;;;;;;;;30.21;19.50;101357.22;5076841;28;1064;-21
2023/01/26 09:01:15;;;;;;;;;;;;;;;27.74;21.92;101351.31;5063614;28;1117;-21
2023/01/26 09:03:41;;;;;;;;;;;;;;;27.49;22.44;101359.44;5069345;28;1091;-21
2023/01/26 09:06:06;;;;;;;;;;;;;;;29.91;20.09;101349.06;5063742;28;1437;-21
2023/01/26 09:08:31;;;;;;;;;;;;;;;29.94;20.06;101341.41;5056366;28;829;-21
2023/01/26 09:10:57;;;;;;;;;;;;;;;29.82;20.03;101332.06;5056802;28;1995;-21
2023/01/26 09:13:22;;;;;;;;;;;;;;;29.73;20.25;101327.75;5075273;28;1069;-22
2023/01/26 09:15:48;;;;;;;;;;;;;;;29.67;20.23;101322.06;5067593;28;1198;-21
2023/01/26 09:18:13;;;;;;;;;;;;;;;29.66;20.32;101322.25;5069127;28;1196;-22
2023/01/26 09:20:38;;;;;;;;;;;;;;;29.72;20.23;101313.34;5069882;28;1214;-22
2023/01/26 09:23:03;;;;;;;;;;;;;;;29.75;20.13;101309.41;5070443;28;1249;-21
2023/01/26 09:25:29;;;;;;;;;;;;;;;29.78;20.22;101312.59;5075947;28;1191;-21
2023/01/26 09:27:54;;;;;;;;;;;;;;;29.88;20.01;101303.34;5070410;28;1033;-21
2023/01/26 09:30:19;;;;;;;;;;;;;;;30.05;19.95;101304.81;5069822;28;1906;-20
2023/01/26 09:32:45;;;;;;;;;;;;;;;30.21;19.79;101304.81;5068895;28;1142;-22
2023/01/26 09:35:10;;;;;;;;;;;;;;;30.26;19.63;101305.09;5069088;28;1231;-22
2023/01/26 09:37:36;;;;;;;;;;;;;;;30.29;19.62;101302.84;5052523;28;1104;-21
2023/01/26 09:40:01;;;;;;;;;;;;;;;30.28;19.62;101287.56;5066399;28;1143;-21
2023/01/26 09:42:45;;;;;;;;;;;;;;;30.25;19.57;101290.66;5060159;28;1136;-21
2023/01/26 09:45:11;;;;;;;;;;;;;;;27.18;22.01;101267.47;5072499;28;1012;-21
2023/01/26 09:47:42;;;;;;;;;;;;;;;27.59;22.41;101272.78;5059225;28;1187;-21
2023/01/26 09:50:09;;;;;;;;;;;;;;;29.87;19.54;101261.81;5074602;28;1088;-22
2023/01/26 09:52:36;;;;;;;;;;;;;;;27.87;21.36;101261.59;5052684;28;2236;-21
2023/01/26 09:55:03;;;;;;;;;;;;;;;26.84;22.88;101259.34;5074143;28;1274;-21
2023/01/26 09:57:32;;;;;;;;;;;;;;;27.81;21.56;101251.44;5056592;28;1263;-22
2023/01/26 10:00:04;;;;;;;;;;;;;;;28.07;21.28;101241.38;5063745;28;1278;-21
2023/01/26 10:02:48;;;;;;;;;;;;;;;27.99;21.29;101239.56;5069521;28;1215;-22
2023/01/26 10:05:15;;;;;;;;;;;;;;;28.62;21.04;101233.25;5058581;28;2893;-21
2023/01/26 10:07:46;;;;;;;;;;;;;;;29.32;20.16;101227.72;5056449;28;1743;-22
2023/01/26 10:10:17;;;;;;;;;;;;;;;29.31;20.05;101212.47;5046724;28;1990;-21
2023/01/26 10:12:43;;;;;;;;;;;;;;;29.31;19.96;101223.31;5044319;28;1844;-21
2023/01/26 10:15:15;;;;;;;;;;;;;;;29.37;20.13;101218.16;5063956;28;1830;-21
2023/01/26 10:17:41;;;;;;;;;;;;;;;29.43;20.07;101218.25;5048877;28;2007;-24
2023/01/26 10:20:25;;;;;;;;;;;;;;;29.51;19.94;101219.19;5070892;28;1955;-22
2023/01/26 10:23:15;;;;;;;;;;;;;;;29.50;19.93;101202.09;5062955;28;1191;-22
2023/01/26 10:25:40;;;;;;;;;;;;;;;29.63;19.91;101190.59;5050928;28;1282;-21
2023/01/26 10:28:13;;;;;;;;;;;;;;;29.74;19.65;101189.28;5075396;28;1127;-21
2023/01/26 10:30:39;;;;;;;;;;;;;;;29.68;19.71;101181.88;5053789;28;1897;-21
2023/01/26 10:33:04;;;;;;;;;;;;;;;29.75;19.63;101176.56;5058536;28;849;-21
2023/01/26 10:35:30;;;;;;;;;;;;;;;29.79;19.91;101177.88;5062263;28;1103;-21
2023/01/26 10:37:56;;;;;;;;;;;;;;;29.80;19.54;101176.81;5079211;28;1075;-22
2023/01/26 10:40:22;;;;;;;;;;;;;;;29.89;19.53;101178.41;5049187;28;1302;-21
2023/01/26 10:42:55;;;;;;;;;;;;;;;29.90;19.68;101171.09;5078692;28;1031;-21
2023/01/26 10:45:29;;;;;;;;;;;;;;;30.00;19.43;101162.63;5059807;28;1211;-21
2023/01/26 10:48:01;;;;;;;;;;;;;;;29.96;19.54;101161.34;5071202;28;1284;-22
2023/01/26 10:50:26;;;;;;;;;;;;;;;30.04;19.48;101163.94;5071635;28;1971;-21
2023/01/26 10:52:55;;;;;;;;;;;;;;;30.15;19.40;101163.44;5063613;28;992;-21
2023/01/26 10:55:21;;;;;;;;;;;;;;;30.19;19.47;101161.16;5077551;28;1078;-22
2023/01/26 10:57:46;;;;;;;;;;;;;;;27.06;22.40;101151.72;5077794;28;1110;-22
2023/01/26 11:00:18;;;;;;;;;;;;;;;27.41;22.89;101150.59;5066787;28;1183;-21
2023/01/26 11:02:48;;;;;;;;;;;;;;;27.61;22.12;101140.22;5058641;28;973;-22
2023/01/26 11:05:17;;;;;;;;;;;;;;;26.72;23.24;101133.88;5071060;28;1216;-21
2023/01/26 11:07:43;;;;;;;;;;;;;;;28.96;21.23;101137.13;5070393;28;1038;-21
2023/01/26 11:10:24;;;;;;;;;;;;;;;29.73;20.22;101135.25;5072567;28;887;-21
2023/01/26 11:12:49;;;;;;;;;;;;;;;29.85;19.96;101141.84;5078131;28;1099;-22
2023/01/26 11:15:21;;;;;;;;;;;;;;;29.65;20.17;101136.19;5061244;28;992;-21
2023/01/26 11:17:58;;;;;;;;;;;;;;;29.52;20.42;101135.00;5068533;28;1112;-21
2023/01/26 11:20:44;;;;;;;;;;;;;;;29.60;20.41;101138.63;5057138;28;1999;-21
2023/01/26 11:23:24;;;;;;;;;;;;;;;29.54;20.47;101130.22;5057714;28;1107;-21
2023/01/26 11:25:56;;;;;;;;;;;;;;;29.55;20.50;101125.63;5082197;28;995;-22
2023/01/26 11:28:27;;;;;;;;;;;;;;;29.60;20.49;101128.63;5061316;28;1028;-22
2023/01/26 11:31:11;;;;;;;;;;;;;;;29.60;20.55;101130.50;5066943;28;1902;-22
2023/01/26 11:33:43;;;;;;;;;;;;;;;29.63;20.71;101124.72;5063817;28;1207;-22
2023/01/26 11:36:12;;;;;;;;;;;;;;;29.88;20.30;101119.75;5076840;28;1106;-22
2023/01/26 11:38:38;;;;;;;;;;;;;;;30.05;19.98;101116.78;5075996;28;1067;-22
2023/01/26 11:41:04;;;;;;;;;;;;;;;30.09;20.08;101114.53;5057734;28;1179;-23
2023/01/26 11:43:32;;;;;;;;;;;;;;;30.28;19.76;101115.78;5069919;28;1102;-23
2023/01/26 11:46:16;;;;;;;;;;;;;;;30.34;19.71;101125.00;5070260;28;1173;-23
2023/01/26 11:49:02;;;;;;;;;;;;;;;30.33;19.76;101113.28;5057480;28;1012;-23
2023/01/26 11:51:48;;;;;;;;;;;;;;;30.21;19.69;101104.03;5076275;28;1977;-22
2023/01/26 11:54:16;;;;;;;;;;;;;;;28.07;21.81;101106.16;5060622;28;1119;-23
2023/01/26 11:56:49;;;;;;;;;;;;;;;28.84;21.77;101111.56;5056724;28;1005;-23
2023/01/26 11:59:18;;;;;;;;;;;;;;;29.50;20.38;101118.06;5057610;28;1167;-22
2023/01/26 12:01:48;;;;;;;;;;;;;;;27.47;22.44;101107.53;5047957;28;1056;-22
2023/01/26 12:04:15;;;;;;;;;;;;;;;27.92;22.24;101103.38;5058053;28;1079;-23
2023/01/26 12:06:41;;;;;;;;;;;;;;;28.39;21.90;101098.81;5058762;28;1047;-22
2023/01/26 12:09:17;;;;;;;;;;;;;;;28.82;21.50;101097.38;5052821;28;1029;-23
2023/01/26 12:11:45;;;;;;;;;;;;;;;29.09;20.70;101086.94;5040418;28;1969;-23
2023/01/26 12:14:14;;;;;;;;;;;;;;;29.86;20.15;101099.28;5076729;28;1020;-23
2023/01/26 12:16:42;;;;;;;;;;;;;;;29.77;20.39;101094.00;5075545;28;1001;-22
2023/01/26 12:19:07;;;;;;;;;;;;;;;29.88;20.38;101098.06;5056813;28;984;-21
2023/01/26 12:21:33;;;;;;;;;;;;;;;29.96;20.22;101093.56;5066303;28;1804;-20
2023/01/26 12:23:59;;;;;;;;;;;;;;;30.07;20.08;101093.03;5052195;28;1191;-22
2023/01/26 12:26:25;;;;;;;;;;;;;;;30.08;20.02;101093.88;5089289;28;1049;-22
2023/01/26 12:28:53;;;;;;;;;;;;;;;29.98;20.04;101091.50;5059609;28;1068;-23
2023/01/26 12:31:23;;;;;;;;;;;;;;;29.98;20.23;101091.50;5063633;28;1897;-22
2023/01/26 12:33:50;;;;;;;;;;;;;;;30.01;20.00;101091.09;5056050;28;940;-23
2023/01/26 12:36:26;;;;;;;;;;;;;;;30.08;19.97;101089.25;5056963;28;987;-22
2023/01/26 12:38:52;;;;;;;;;;;;;;;30.05;19.95;101084.22;5059307;28;1017;-24
2023/01/26 12:41:20;;;;;;;;;;;;;;;30.22;19.83;101073.13;5063089;28;1119;-25
2023/01/26 12:43:51;;;;;;;;;;;;;;;30.37;19.65;101079.31;5076268;28;988;-23
2023/01/26 12:46:16;;;;;;;;;;;;;;;30.51;19.73;101066.66;5075682;28;1102;-23
2023/01/26 12:48:43;;;;;;;;;;;;;;;30.52;19.56;101067.50;5066442;28;1088;-24
2023/01/26 12:51:19;;;;;;;;;;;;;;;30.51;19.57;101065.84;5038454;28;1971;-23
2023/01/26 12:53:58;;;;;;;;;;;;;;;30.42;19.84;101070.56;5050928;28;1152;-24
2023/01/26 12:56:26;;;;;;;;;;;;;;;28.12;22.38;101060.47;5046278;28;1103;-22
2023/01/26 12:58:52;;;;;;;;;;;;;;;28.83;21.77;101058.44;5074175;28;934;-27
2023/01/26 13:01:20;;;;;;;;;;;;;;;30.21;20.26;101056.03;5038544;28;1081;-24
2023/01/26 13:03:52;;;;;;;;;;;;;;;30.28;19.82;101056.09;5069596;28;1031;-23
2023/01/26 13:06:18;;;;;;;;;;;;;;;30.17;20.06;101049.28;5055809;28;1144;-26
2023/01/26 13:08:47;;;;;;;;;;;;;;;29.99;20.33;101042.47;5069084;28;1131;-24
2023/01/26 13:11:13;;;;;;;;;;;;;;;30.00;20.24;101032.44;5056130;28;1967;-28
2023/01/26 13:13:51;;;;;;;;;;;;;;;30.01;20.33;101024.09;5052741;28;1236;-27
2023/01/26 13:16:16;;;;;;;;;;;;;;;30.14;20.08;101011.69;5076196;28;1127;-26
2023/01/26 13:18:52;;;;;;;;;;;;;;;30.17;20.31;101014.84;5057987;28;1174;-22
2023/01/26 13:21:27;;;;;;;;;;;;;;;30.20;20.19;101005.50;5064869;28;1769;-23
2023/01/26 13:23:52;;;;;;;;;;;;;;;30.30;20.26;100995.13;5074471;28;1064;-22
2023/01/26 13:26:19;;;;;;;;;;;;;;;30.41;19.98;100996.44;5043272;28;1187;-24
2023/01/26 13:28:44;;;;;;;;;;;;;;;30.34;20.04;100990.16;5061500;28;1033;-23
2023/01/26 13:31:10;;;;;;;;;;;;;;;30.27;20.25;100987.41;5051424;28;1949;-28
2023/01/26 13:33:35;;;;;;;;;;;;;;;30.27;20.07;100989.25;5075032;28;997;-25
2023/01/26 13:36:05;;;;;;;;;;;;;;;29.22;20.38;100986.03;5063655;28;1031;-26